Time;durP1;ratioP1;P1;durP2;ratioP2;P2;SDS_P1;SDS_P2;PMS_P1;PMS_P2;Temp;Humidity;BMP_temperature;BMP_pressure;BME280_temperature;BME280_humidity;BME280_pressure;Samples;Min_cycle;Max_cycle;Signal;HPM_P1;HPM_P2
2022/12/15 00:40:42;;;;;;;17.05;7.92;;;;;;;-1.65;79.26;100364.46;1814898;79;21158;-63
2022/12/15 00:43:13;;;;;;;15.38;7.72;;;;;;;-1.66;78.91;100356.03;1776770;81;21170;-63
2022/12/15 00:48:31;;;;;;;17.35;7.97;;;;;;;-1.66;78.70;100351.16;1777711;81;21190;-62
2022/12/15 00:51:00;;;;;;;14.43;7.25;;;;;;;-1.63;78.66;100341.50;1745516;82;21158;-63
2022/12/15 01:21:37;;;;;;;17.42;7.62;;;;;;;-1.62;77.42;100319.05;1776276;81;21574;-61
2022/12/15 01:24:07;;;;;;;16.00;7.80;;;;;;;-1.62;77.42;100313.67;1745393;82;21170;-61
2022/12/15 01:26:36;;;;;;;14.60;7.03;;;;;;;-1.61;77.40;100308.17;1745351;82;21127;-61
2022/12/15 01:29:05;;;;;;;17.95;8.05;;;;;;;-1.61;77.49;100310.00;1815098;79;21099;-62
2022/12/15 01:31:34;;;;;;;15.25;7.70;;;;;;;-1.60;77.61;100313.06;1814929;79;21087;-61
2022/12/15 01:34:05;;;;;;;15.55;7.58;;;;;;;-1.60;77.65;100312.56;1745411;82;21578;-61
2022/12/15 01:36:35;;;;;;;14.60;7.50;;;;;;;-1.60;77.79;100303.17;1814845;79;21134;-61
2022/12/15 01:39:04;;;;;;;15.23;7.28;;;;;;;-1.62;78.06;100295.72;1814777;79;21566;-61
2022/12/15 01:41:34;;;;;;;14.98;7.35;;;;;;;-1.63;78.10;100302.07;1776227;81;21154;-61
2022/12/15 01:44:20;;;;;;;12.30;6.28;;;;;;;-1.64;78.10;100294.98;1745381;82;21115;-62
2022/12/15 01:46:52;;;;;;;14.05;6.90;;;;;;;-1.64;78.19;100290.11;1814675;79;21106;-62
2022/12/15 01:49:24;;;;;;;13.20;6.67;;;;;;;-1.66;78.02;100282.66;1776575;80;21155;-63
2022/12/15 01:51:57;;;;;;;14.05;6.87;;;;;;;-1.71;78.00;100284.37;1814632;79;21824;-64
2022/12/15 01:54:51;;;;;;;14.15;6.33;;;;;;;-1.71;77.54;100272.77;1814572;79;21130;-62
2022/12/15 01:57:26;;;;;;;15.00;6.72;;;;;;;-1.70;77.07;100267.28;1776313;81;21163;-62
2022/12/15 01:59:59;;;;;;;12.60;6.42;;;;;;;-1.68;76.66;100257.27;1814957;79;21162;-64
2022/12/15 02:02:28;;;;;;;13.93;7.33;;;;;;;-1.65;76.58;100251.64;1776049;81;21119;-62
2022/12/15 02:05:00;;;;;;;16.50;7.30;;;;;;;-1.64;76.49;100252.02;1813839;79;21123;-62
2022/12/15 02:07:29;;;;;;;14.43;6.83;;;;;;;-1.64;76.55;100238.58;1776135;81;22238;-63
2022/12/15 02:10:01;;;;;;;15.00;7.20;;;;;;;-1.65;76.96;100246.77;1745534;82;21143;-63
2022/12/15 02:13:00;;;;;;;15.83;7.33;;;;;;;-1.70;77.45;100239.56;1745639;82;21190;-63
2022/12/15 02:15:39;;;;;;;20.27;9.13;;;;;;;-1.74;78.30;100236.27;1814901;79;21436;-63
2022/12/15 02:18:45;;;;;;;17.07;8.03;;;;;;;-1.79;78.93;100233.11;1745556;82;21123;-64
2022/12/15 02:21:19;;;;;;;17.10;8.03;;;;;;;-1.82;79.59;100214.55;1776145;81;21162;-63
2022/12/15 02:24:02;;;;;;;15.55;7.45;;;;;;;-1.87;80.31;100203.33;1745595;82;21127;-64
2022/12/15 02:26:45;;;;;;;14.68;6.92;;;;;;;-1.89;80.74;100207.97;1812329;79;21111;-63
2022/12/15 02:29:41;;;;;;;15.58;7.47;;;;;;;-1.89;81.00;100208.45;1722359;81;21127;-63
2022/12/15 02:32:23;;;;;;;15.30;7.55;;;;;;;-1.87;81.02;100211.38;1737635;82;21163;-63
2022/12/15 02:35:01;;;;;;;15.50;7.70;;;;;;;-1.86;80.73;100204.19;1737686;82;21127;-63
2022/12/15 02:37:37;;;;;;;12.43;6.83;;;;;;;-1.82;80.71;100216.38;1806279;79;21143;-62
2022/12/15 02:40:08;;;;;;;14.47;7.15;;;;;;;-1.79;80.35;100218.33;1737511;82;21155;-63
2022/12/15 02:42:42;;;;;;;15.05;6.62;;;;;;;-1.77;79.93;100226.27;1806142;79;21111;-63
2022/12/15 02:45:19;;;;;;;13.55;7.25;;;;;;;-1.75;79.71;100218.94;1737774;82;21159;-65
2022/12/15 02:47:57;;;;;;;18.77;7.10;;;;;;;-1.74;79.54;100218.81;1806163;79;21150;-64
2022/12/15 02:50:48;;;;;;;12.10;6.62;;;;;;;-1.72;79.55;100199.89;1768085;81;21123;-63
2022/12/15 02:53:53;;;;;;;13.60;6.80;;;;;;;-1.75;79.64;100209.54;1737740;82;21155;-63
2022/12/15 02:57:04;;;;;;;14.25;6.30;;;;;;;-1.77;79.92;100196.23;1805902;79;21146;-62
2022/12/15 02:59:54;;;;;;;13.53;6.67;;;;;;;-1.78;80.37;100191.84;1737609;82;21609;-63
2022/12/15 03:02:25;;;;;;;13.38;6.67;;;;;;;-1.81;83.35;100197.46;1806286;79;21162;-63
2022/12/15 03:04:54;;;;;;;14.65;6.47;;;;;;;-1.83;85.09;100191.36;1806094;79;21139;-63
2022/12/15 03:07:26;;;;;;;13.32;6.67;;;;;;;-1.84;85.47;100189.66;1806177;79;21159;-63
2022/12/15 03:09:55;;;;;;;14.73;6.37;;;;;;;-1.87;85.34;100187.22;1737519;82;21119;-63
2022/12/15 03:12:24;;;;;;;12.88;6.70;;;;;;;-1.88;85.12;100188.20;1806103;79;21540;-64
2022/12/15 03:14:53;;;;;;;16.70;6.65;;;;;;;-1.88;84.97;100181.48;1806431;79;21119;-63
2022/12/15 03:17:23;;;;;;;10.65;5.53;;;;;;;-1.89;84.37;100187.83;1737783;82;21148;-62
2022/12/15 03:19:53;;;;;;;13.25;6.10;;;;;;;-1.90;84.08;100185.27;1806177;79;21151;-64
2022/12/15 03:22:22;;;;;;;10.75;5.70;;;;;;;-1.90;84.07;100186.13;1806031;79;21143;-64
2022/12/15 03:24:51;;;;;;;13.00;6.72;;;;;;;-1.92;83.65;100182.22;1806085;79;21135;-63
2022/12/15 03:27:20;;;;;;;12.47;5.97;;;;;;;-1.94;83.62;100169.90;1771773;81;21166;-63
2022/12/15 03:29:49;;;;;;;12.35;6.30;;;;;;;-1.94;83.86;100174.78;1745622;82;21151;-62
2022/12/15 03:32:19;;;;;;;14.43;6.35;;;;;;;-1.94;83.93;100160.02;1814691;79;21119;-61
2022/12/15 03:34:49;;;;;;;12.63;6.25;;;;;;;-1.94;84.03;100153.79;1776021;81;21735;-63
2022/12/15 03:37:18;;;;;;;13.85;6.50;;;;;;;-1.96;84.24;100142.29;1745449;82;21134;-62
2022/12/15 03:39:47;;;;;;;13.83;6.20;;;;;;;-1.99;84.54;100138.02;1814651;79;21115;-61
2022/12/15 03:42:47;;;;;;;11.78;6.03;;;;;;;-2.01;84.88;100131.07;1814621;79;21123;-62
2022/12/15 03:44:48;;;;;;;12.40;5.60;;;;;;;-2.04;85.38;100128.14;1810451;79;21214;-62
2022/12/15 03:47:17;;;;;;;14.43;6.42;;;;;;;-2.06;85.86;100125.22;1745365;82;21150;-63
2022/12/15 03:49:46;;;;;;;14.87;6.60;;;;;;;-2.08;86.31;100149.50;1814736;79;21083;-61
2022/12/15 03:52:15;;;;;;;13.95;6.28;;;;;;;-2.09;86.75;100133.03;1814881;79;21114;-63
2022/12/15 03:54:45;;;;;;;13.40;6.72;;;;;;;-2.10;87.04;100113.03;1814877;79;21107;-62
2022/12/15 03:57:14;;;;;;;12.47;6.55;;;;;;;-2.09;87.48;100116.93;1814655;79;21592;-62
2022/12/15 03:59:44;;;;;;;16.05;6.72;;;;;;;-2.09;87.90;100108.02;1776262;80;21190;-61
2022/12/15 04:02:14;;;;;;;14.87;6.92;;;;;;;-2.10;88.05;100096.92;1814849;79;21170;-62
2022/12/15 04:04:44;;;;;;;14.18;6.83;;;;;;;-2.11;88.33;100095.22;1814625;79;21131;-63
2022/12/15 04:07:14;;;;;;;12.80;6.70;;;;;;;-2.10;88.50;100100.95;1814991;79;21220;-63
2022/12/15 04:09:42;;;;;;;14.18;6.80;;;;;;;-2.11;88.73;100114.86;1745564;82;21142;-63
2022/12/15 04:12:11;;;;;;;13.20;6.65;;;;;;;-2.12;88.99;100103.76;1814671;79;21193;-63
2022/12/15 04:14:41;;;;;;;12.70;6.60;;;;;;;-2.10;89.21;100117.05;1776352;81;21161;-63
2022/12/15 04:17:12;;;;;;;13.53;6.30;;;;;;;-2.10;89.35;100105.83;1745533;82;21553;-63
2022/12/15 04:22:30;;;;;;;16.25;6.03;;;;;;;-2.06;89.69;100076.91;1814975;79;21114;-62
2022/12/15 05:32:32;;;;;;;12.03;5.87;;;;;;;-1.94;91.43;99988.20;1768206;81;21116;-63
2022/12/15 05:35:01;;;;;;;13.28;6.42;;;;;;;-1.90;91.46;99983.91;1737606;82;21139;-62
2022/12/15 05:37:30;;;;;;;14.70;6.78;;;;;;;-1.87;91.49;99986.34;1806508;79;21083;-65
2022/12/15 05:39:59;;;;;;;15.40;7.20;;;;;;;-1.89;91.45;99978.41;1767856;81;21535;-64
2022/12/15 05:42:29;;;;;;;16.87;7.60;;;;;;;-1.88;91.53;99969.87;1737571;82;21179;-62
2022/12/15 05:44:59;;;;;;;40.10;23.02;;;;;;;-1.86;91.67;99970.10;1806135;79;21100;-65
2022/12/15 05:47:27;;;;;;;15.70;6.90;;;;;;;-1.83;91.81;99964.97;1737783;82;21554;-62
2022/12/15 05:49:58;;;;;;;14.53;6.60;;;;;;;-1.83;91.83;99949.70;1806151;79;21119;-63
2022/12/15 05:52:27;;;;;;;15.35;7.30;;;;;;;-1.82;91.88;99954.09;1806139;79;21095;-64
2022/12/15 05:54:57;;;;;;;15.83;6.95;;;;;;;-1.80;92.04;99953.47;1806087;79;21123;-63
2022/12/15 05:57:27;;;;;;;18.92;7.85;;;;;;;-1.80;92.20;99952.13;1806013;79;21107;-63
2022/12/15 05:59:57;;;;;;;16.62;7.40;;;;;;;-1.79;92.35;99955.67;1806262;79;21142;-63
2022/12/15 06:02:29;;;;;;;17.25;7.87;;;;;;;-1.78;92.49;99979.70;1737471;82;21103;-61
2022/12/15 06:04:58;;;;;;;14.68;7.20;;;;;;;-1.76;92.55;99981.77;1806313;79;21656;-63
2022/12/15 06:07:28;;;;;;;15.72;7.58;;;;;;;-1.73;92.60;99977.97;1806371;79;21167;-63
2022/12/15 06:09:58;;;;;;;19.10;7.37;;;;;;;-1.71;92.68;99967.46;1806197;79;21178;-64
2022/12/15 06:12:28;;;;;;;14.87;7.45;;;;;;;-1.68;92.71;99967.69;1767956;81;21119;-64
2022/12/15 06:14:58;;;;;;;16.12;8.15;;;;;;;-1.65;92.72;99955.34;1737635;82;21214;-63
2022/12/15 06:17:27;;;;;;;18.45;7.95;;;;;;;-1.63;92.68;99950.69;1806336;79;21107;-65
2022/12/15 06:19:55;;;;;;;16.23;7.33;;;;;;;-1.62;92.76;99958.62;1768185;81;21171;-63
2022/12/15 06:22:27;;;;;;;19.23;7.75;;;;;;;-1.57;92.85;99953.34;1806053;79;21158;-63
2022/12/15 06:24:56;;;;;;;15.50;6.92;;;;;;;-1.56;92.81;99951.02;1716569;82;21138;-63
2022/12/15 06:27:25;;;;;;;17.23;7.70;;;;;;;-1.54;92.85;99940.50;1806275;79;21855;-65
2022/12/15 06:29:54;;;;;;;18.95;7.92;;;;;;;-1.53;92.86;99941.36;1767935;81;21147;-64
2022/12/15 06:32:26;;;;;;;17.00;7.67;;;;;;;-1.52;92.94;99941.72;1737937;82;21600;-64
2022/12/15 06:34:56;;;;;;;15.53;8.10;;;;;;;-1.52;93.17;99949.28;1806230;79;21111;-63
2022/12/15 06:37:26;;;;;;;15.83;6.85;;;;;;;-1.50;93.37;99938.41;1737668;82;21147;-65
2022/12/15 06:39:55;;;;;;;15.37;7.17;;;;;;;-1.49;93.51;99930.21;1806010;79;21104;-64
2022/12/15 06:42:25;;;;;;;15.98;7.90;;;;;;;-1.48;93.63;99931.91;1737744;82;22168;-63
2022/12/15 06:44:53;;;;;;;20.82;8.48;;;;;;;-1.48;93.68;99933.26;1806513;79;22088;-64
2022/12/15 06:47:23;;;;;;;15.90;8.60;;;;;;;-1.45;93.81;99936.17;1767885;81;21159;-66
2022/12/15 06:49:52;;;;;;;21.85;10.45;;;;;;;-1.46;93.86;99941.19;1737471;82;21262;-63
2022/12/15 06:52:21;;;;;;;20.88;8.28;;;;;;;-1.44;94.06;99937.88;1806095;79;21138;-65
2022/12/15 06:54:51;;;;;;;17.73;8.30;;;;;;;-1.43;94.32;99933.71;1768019;81;21136;-65
2022/12/15 06:57:28;;;;;;;14.55;7.53;;;;;;;-1.44;94.46;99923.95;1806059;79;21166;-65
2022/12/15 06:59:58;;;;;;;;;;;;;;;-1.43;94.72;99922.97;1740088;82;22055;-64
2022/12/15 07:02:31;;;;;;;14.40;7.58;;;;;;;-1.45;94.90;99924.94;1737549;82;20181;-64
2022/12/15 07:05:01;;;;;;;16.52;7.75;;;;;;;-1.46;95.09;99931.29;1806287;79;21123;-65
2022/12/15 07:07:31;;;;;;;12.78;6.67;;;;;;;-1.43;95.29;99932.86;1806319;79;21576;-64
2022/12/15 07:10:00;;;;;;;18.80;7.87;;;;;;;-1.42;95.44;99939.94;1767837;81;21168;-64
2022/12/15 07:12:31;;;;;;;16.30;7.60;;;;;;;-1.41;95.53;99945.17;1737534;82;21604;-63
2022/12/15 07:15:00;;;;;;;15.98;8.00;;;;;;;-1.40;95.65;99945.53;1806281;79;21554;-64
2022/12/15 07:17:30;;;;;;;18.82;8.55;;;;;;;-1.40;95.74;99943.34;1767882;81;21162;-63
2022/12/15 07:19:59;;;;;;;15.58;7.65;;;;;;;-1.39;95.86;99943.20;1737413;82;21124;-63
2022/12/15 07:22:29;;;;;;;14.98;7.58;;;;;;;-1.39;96.00;99934.30;1806060;79;21095;-63
2022/12/15 07:24:59;;;;;;;18.07;7.53;;;;;;;-1.38;96.15;99940.87;1806108;79;21119;-67
2022/12/15 07:27:29;;;;;;;17.73;8.75;;;;;;;-1.36;96.26;99935.38;1768101;81;21116;-64
2022/12/15 07:30:00;;;;;;;14.68;7.45;;;;;;;-1.35;96.36;99941.95;1737438;82;21119;-66
2022/12/15 07:32:30;;;;;;;17.67;8.00;;;;;;;-1.34;96.45;99949.53;1738034;82;21179;-64
2022/12/15 07:35:04;;;;;;;16.20;8.35;;;;;;;-1.33;96.57;99941.83;1737825;82;21135;-65
2022/12/15 07:37:34;;;;;;;17.17;8.38;;;;;;;-1.32;96.65;99941.69;1806290;79;21551;-65
2022/12/15 07:40:05;;;;;;;15.55;8.30;;;;;;;-1.28;96.79;99934.25;1767856;81;21120;-63
2022/12/15 07:42:34;;;;;;;17.52;7.67;;;;;;;-1.27;96.83;99934.60;1806362;79;21150;-63
2022/12/15 07:45:04;;;;;;;16.30;8.50;;;;;;;-1.25;96.84;99932.64;1806249;79;21127;-65
2022/12/15 07:47:33;;;;;;;18.52;8.43;;;;;;;-1.24;96.91;99941.05;1805983;79;21142;-64
2022/12/15 07:50:04;;;;;;;19.05;8.53;;;;;;;-1.21;96.96;99939.45;1805973;79;21104;-66
2022/12/15 07:52:34;;;;;;;17.98;8.53;;;;;;;-1.20;97.00;99932.23;1737311;82;21543;-64
2022/12/15 07:55:04;;;;;;;17.60;8.75;;;;;;;-1.21;97.12;99927.35;1806032;79;21135;-64
2022/12/15 07:57:34;;;;;;;16.70;8.05;;;;;;;-1.20;97.31;99935.77;1806664;79;21107;-63
2022/12/15 08:00:09;;;;;;;18.02;9.05;;;;;;;-1.20;97.38;99931.74;1806618;79;21570;-64
2022/12/15 08:02:41;;;;;;;18.07;8.35;;;;;;;-1.18;97.54;99936.48;1784870;79;21154;-63
2022/12/15 08:05:10;;;;;;;18.27;8.90;;;;;;;-1.16;97.70;99939.05;1737461;82;21218;-64
2022/12/15 08:07:40;;;;;;;18.12;8.90;;;;;;;-1.12;97.80;99937.79;1805957;79;21150;-63
2022/12/15 08:10:09;;;;;;;17.67;8.88;;;;;;;-1.08;97.82;99938.73;1805958;79;21103;-66
2022/12/15 08:12:39;;;;;;;17.62;8.38;;;;;;;-1.06;97.90;99946.16;1806197;79;21138;-64
2022/12/15 08:15:10;;;;;;;17.48;8.83;;;;;;;-1.05;97.95;99955.08;1806270;79;21141;-65
2022/12/15 08:17:41;;;;;;;19.30;8.35;;;;;;;-1.01;97.98;99948.45;1767725;81;21169;-62
2022/12/15 08:20:10;;;;;;;13.60;7.97;;;;;;;-1.01;98.01;99947.95;1784029;79;21530;-63
2022/12/15 08:22:40;;;;;;;19.12;9.15;;;;;;;-1.00;98.07;99954.18;1806307;79;21107;-65
2022/12/15 08:25:10;;;;;;;17.82;9.55;;;;;;;-1.01;98.12;99945.27;1806099;79;21108;-63
2022/12/15 08:27:40;;;;;;;19.62;9.70;;;;;;;-0.98;98.17;99954.90;1767826;81;21127;-65
2022/12/15 08:30:12;;;;;;;16.57;8.73;;;;;;;-0.95;98.24;99950.59;1698249;82;21165;-62
2022/12/15 08:32:42;;;;;;;21.40;9.60;;;;;;;-0.95;98.35;99954.63;1780279;80;21177;-64
2022/12/15 08:35:14;;;;;;;16.50;8.98;;;;;;;-0.93;98.40;99943.73;1778593;80;21601;-65
2022/12/15 08:37:45;;;;;;;17.80;9.60;;;;;;;-0.90;98.41;99938.09;1775788;80;21118;-65
2022/12/15 08:40:15;;;;;;;18.32;9.33;;;;;;;-0.90;98.46;99938.09;1780236;80;21098;-64
2022/12/15 08:42:44;;;;;;;21.50;9.73;;;;;;;-0.90;98.53;99940.77;1780214;80;21158;-66
2022/12/15 08:45:13;;;;;;;20.35;9.23;;;;;;;-0.87;98.62;99939.16;1779947;80;21151;-66
2022/12/15 08:47:42;;;;;;;18.90;8.98;;;;;;;-0.85;98.63;99942.07;1780327;80;21204;-64
2022/12/15 08:50:11;;;;;;;20.82;10.25;;;;;;;-0.85;98.62;99931.31;1779994;80;21198;-66
2022/12/15 08:52:41;;;;;;;17.80;9.00;;;;;;;-0.85;98.80;99932.66;1779914;80;21119;-65
2022/12/15 08:55:12;;;;;;;17.30;8.58;;;;;;;-0.84;98.84;99938.39;1775618;80;21197;-66
2022/12/15 08:57:43;;;;;;;20.50;10.20;;;;;;;-0.80;98.90;99946.55;1779203;80;21190;-65
2022/12/15 09:00:15;;;;;;;18.10;8.75;;;;;;;-0.77;98.99;99954.83;1779414;80;21173;-66
2022/12/15 09:02:54;;;;;;;15.63;7.42;;;;;;;-0.74;99.07;99951.88;1765192;80;21418;-66
2022/12/15 09:05:44;;;;;;;13.10;6.30;;;;;;;-0.73;99.15;99950.39;1756613;80;21116;-66
2022/12/15 09:08:29;;;;;;;18.75;9.85;;;;;;;-0.69;99.23;99957.20;1780188;80;21224;-67
2022/12/15 09:11:08;;;;;;;;;;;;;;;-0.66;99.30;99950.20;1769301;80;21610;-67
2022/12/15 09:32:23;;;;;;;15.72;8.13;;;;;;;-0.42;99.99;99927.48;1765959;77;21446;-54
2022/12/15 09:34:54;;;;;;;19.95;8.90;;;;;;;-0.41;100.00;99926.00;1724686;82;21715;-53
2022/12/15 09:37:23;;;;;;;15.43;8.25;;;;;;;-0.39;100.00;99930.75;1708908;84;21146;-54
2022/12/15 09:39:53;;;;;;;17.00;8.18;;;;;;;-0.39;99.96;99928.05;1696873;84;21149;-54
2022/12/15 09:42:25;;;;;;;17.10;7.60;;;;;;;-0.35;99.94;99930.82;1696909;84;21171;-53
2022/12/15 09:45:18;;;;;;;17.67;8.45;;;;;;;-0.35;100.00;99923.24;1696812;84;21223;-53
2022/12/15 09:47:53;;;;;;;17.90;8.13;;;;;;;-0.34;100.00;99931.67;1696784;83;21263;-54
2022/12/15 09:50:37;;;;;;;16.50;8.35;;;;;;;-0.33;100.00;99940.10;1696942;84;21224;-54
2022/12/15 09:53:10;;;;;;;16.37;8.15;;;;;;;-0.32;100.00;99942.66;1726057;83;21130;-53
2022/12/15 09:55:42;;;;;;;14.40;7.53;;;;;;;-0.29;100.00;99942.88;1722324;83;21173;-54
2022/12/15 09:58:42;;;;;;;15.38;8.45;;;;;;;-0.27;100.00;99936.00;1702136;83;21622;-54
2022/12/15 10:01:32;;;;;;;16.27;7.95;;;;;;;-0.27;100.00;99938.69;1726322;83;21550;-53
2022/12/15 10:04:37;;;;;;;12.78;6.67;;;;;;;-0.25;100.00;99942.09;1726089;83;21141;-52
2022/12/15 10:07:15;;;;;;;16.75;8.23;;;;;;;-0.23;100.00;99941.46;1725521;83;21114;-52
2022/12/15 10:09:47;;;;;;;14.70;7.70;;;;;;;-0.21;100.00;99944.37;1725944;83;21126;-51
2022/12/15 10:12:26;;;;;;;14.38;7.87;;;;;;;-0.19;100.00;99938.84;1725813;83;21126;-52
2022/12/15 10:15:22;;;;;;;14.40;7.75;;;;;;;-0.18;100.00;99936.51;1725812;83;21517;-51
2022/12/15 10:18:03;;;;;;;17.32;8.30;;;;;;;-0.15;100.00;99946.50;1684628;83;21176;-52
2022/12/15 10:20:34;;;;;;;15.38;8.10;;;;;;;-0.12;100.00;99927.86;1725777;83;21118;-52
2022/12/15 10:23:16;;;;;;;16.67;8.00;;;;;;;-0.11;100.00;99932.26;1701378;83;21634;-52
2022/12/15 10:25:50;;;;;;;18.52;8.78;;;;;;;-0.11;100.00;99935.80;1725758;83;22012;-51
2022/12/15 10:28:25;;;;;;;17.20;8.98;;;;;;;-0.11;100.00;99929.06;1724593;83;21126;-52
2022/12/15 10:31:08;;;;;;;15.35;8.58;;;;;;;-0.08;100.00;99938.21;1725821;83;21621;-52
2022/12/15 10:33:39;;;;;;;16.52;8.38;;;;;;;-0.05;100.00;99938.42;1711340;82;21150;-51
2022/12/15 10:36:11;;;;;;;17.23;8.13;;;;;;;-0.06;100.00;99937.58;1727897;82;21138;-51
2022/12/15 10:38:46;;;;;;;19.07;9.08;;;;;;;-0.04;100.00;99941.47;1755131;82;21150;-52
2022/12/15 10:41:28;;;;;;;16.75;8.45;;;;;;;0.03;100.00;99936.41;1729830;82;21169;-51
2022/12/15 10:43:56;;;;;;;17.05;7.90;;;;;;;0.09;100.00;99935.34;1755570;82;21566;-52
2022/12/15 10:46:28;;;;;;;18.70;8.93;;;;;;;0.11;100.00;99944.12;1755027;82;21182;-54
2022/12/15 10:49:01;;;;;;;14.60;8.35;;;;;;;0.10;100.00;99937.04;1755234;82;21169;-52
2022/12/15 10:51:41;;;;;;;16.90;8.75;;;;;;;0.06;100.00;99932.93;1751594;82;21087;-53
2022/12/15 10:54:18;;;;;;;19.80;8.58;;;;;;;0.06;100.00;99936.97;1755547;82;21848;-52
2022/12/15 10:56:50;;;;;;;15.48;8.23;;;;;;;0.09;100.00;99941.22;1728430;82;21569;-51
2022/12/15 10:59:33;;;;;;;13.48;7.53;;;;;;;0.09;100.00;99929.10;1755297;82;21166;-51
2022/12/15 11:02:35;;;;;;;16.48;9.30;;;;;;;0.08;100.00;99932.78;1755342;82;21200;-52
2022/12/15 11:05:14;;;;;;;20.30;11.18;;;;;;;0.08;100.00;99930.09;1754971;82;21237;-53
2022/12/15 11:07:54;;;;;;;18.37;9.70;;;;;;;0.12;100.00;99931.02;1730531;82;21506;-52
2022/12/15 11:12:50;;;;;;;;;;;;;;;0.16;100.00;99930.23;1755585;82;21141;-51
2022/12/15 11:13:18;;;;;;;16.70;9.03;;;;;;;0.18;100.00;99935.83;1751418;82;20183;-53
2022/12/15 11:15:50;;;;;;;16.67;9.28;;;;;;;0.17;100.00;99934.63;1755129;82;21118;-53
2022/12/15 14:46:10;;;;;;;23.73;10.97;;;;;;;0.23;100.00;100049.40;1830193;77;24678;-57
2022/12/15 14:48:56;;;;;;;25.62;12.47;;;;;;;0.22;100.00;100058.47;1768623;80;21154;-55
2022/12/15 14:51:27;;;;;;;27.95;12.58;;;;;;;0.26;100.00;100063.94;1788738;80;21119;-56
2022/12/15 14:53:57;;;;;;;24.70;12.28;;;;;;;0.29;100.00;100078.47;1788401;80;21562;-56
2022/12/15 14:56:29;;;;;;;22.42;12.00;;;;;;;0.34;100.00;100070.47;1788632;80;21161;-57
2022/12/15 14:59:03;;;;;;;18.92;9.28;;;;;;;0.39;100.00;100071.75;1788649;80;21169;-55
2022/12/15 15:01:53;;;;;;;15.35;8.08;;;;;;;0.44;100.00;100071.32;1788403;80;21138;-56
2022/12/15 15:04:31;;;;;;;16.67;8.00;;;;;;;0.49;100.00;100079.34;1747991;80;21096;-56
2022/12/15 15:07:03;;;;;;;15.98;8.08;;;;;;;0.54;100.00;100085.66;1769918;80;21115;-56
2022/12/15 15:09:41;;;;;;;16.85;9.03;;;;;;;0.58;100.00;100087.92;1788435;80;21561;-57
2022/12/15 15:12:17;;;;;;;15.88;7.15;;;;;;;0.63;100.00;100086.16;1788731;80;21154;-55
2022/12/15 15:15:02;;;;;;;13.20;7.63;;;;;;;0.67;100.00;100090.80;1768652;80;21115;-56
2022/12/15 15:17:45;;;;;;;16.32;7.92;;;;;;;0.68;100.00;100093.34;1788543;80;21123;-57
2022/12/15 15:20:30;;;;;;;18.77;8.98;;;;;;;0.70;100.00;100094.06;1754175;78;21164;-53
2022/12/15 15:23:16;;;;;;;15.30;8.03;;;;;;;0.73;100.00;100092.42;1747281;81;21171;-53
2022/12/15 15:25:51;;;;;;;17.35;8.20;;;;;;;0.76;100.00;100096.19;1747423;81;21534;-53
2022/12/15 15:28:27;;;;;;;15.35;8.30;;;;;;;0.79;100.00;100095.05;1747349;81;21591;-52
2022/12/15 15:31:05;;;;;;;15.28;7.85;;;;;;;0.80;100.00;100094.91;1746559;81;21156;-54
2022/12/15 15:33:31;;;;;;;18.87;7.87;;;;;;;0.83;100.00;100112.15;1746782;81;21540;-56
2022/12/15 15:36:03;;;;;;;16.52;8.58;;;;;;;0.84;100.00;100108.95;1747219;81;21123;-53
2022/12/15 15:38:37;;;;;;;17.02;7.87;;;;;;;0.87;100.00;100114.06;1747329;82;21567;-54
2022/12/15 15:41:18;;;;;;;14.40;7.92;;;;;;;0.88;100.00;100115.27;1747510;81;21147;-53
2022/12/15 15:43:48;;;;;;;19.37;9.63;;;;;;;0.87;100.00;100119.45;1747376;81;21120;-55
2022/12/15 15:46:24;;;;;;;17.62;8.70;;;;;;;0.85;100.00;100120.95;1747786;82;21152;-54
2022/12/15 15:49:00;;;;;;;14.13;8.05;;;;;;;0.88;100.00;100117.11;1747281;81;21124;-53
2022/12/15 15:51:30;;;;;;;15.93;9.33;;;;;;;0.86;100.00;100115.91;1743684;81;21202;-52
2022/12/15 15:54:03;;;;;;;17.32;8.35;;;;;;;0.85;100.00;100120.95;1738261;82;21158;-52
2022/12/15 15:56:33;;;;;;;13.78;7.67;;;;;;;0.85;100.00;100119.59;1737802;82;21158;-54
2022/12/15 15:59:15;;;;;;;14.05;7.60;;;;;;;0.86;100.00;100119.10;1737756;82;21127;-54
2022/12/15 16:01:45;;;;;;;18.52;8.30;;;;;;;0.87;100.00;100114.91;1738188;82;21171;-52
2022/12/15 16:04:14;;;;;;;16.42;8.75;;;;;;;0.86;100.00;100121.30;1737719;82;21159;-53
2022/12/15 16:06:44;;;;;;;16.37;8.43;;;;;;;0.87;100.00;100131.09;1737844;82;21100;-52
2022/12/15 16:09:16;;;;;;;16.85;8.88;;;;;;;0.89;100.00;100126.41;1737693;82;21206;-53
2022/12/15 16:11:45;;;;;;;15.50;8.65;;;;;;;0.90;100.00;100125.41;1737686;82;21150;-54
2022/12/15 16:14:16;;;;;;;18.40;8.75;;;;;;;0.92;100.00;100136.06;1737752;82;21103;-53
2022/12/15 16:16:47;;;;;;;16.82;8.48;;;;;;;0.92;100.00;100136.06;1737707;82;21183;-56
2022/12/15 16:19:16;;;;;;;16.20;8.93;;;;;;;0.91;100.00;100136.56;1736683;82;21229;-56
2022/12/15 16:21:49;;;;;;;14.43;8.08;;;;;;;0.93;100.00;100135.06;1726566;82;21114;-53
2022/12/15 16:24:17;;;;;;;14.38;8.20;;;;;;;0.94;100.00;100136.27;1659339;86;21334;-54
2022/12/15 16:26:49;;;;;;;17.82;8.80;;;;;;;0.95;100.00;100139.33;1680063;85;21174;-56
2022/12/15 16:29:19;;;;;;;19.45;8.30;;;;;;;0.98;100.00;100144.94;1679810;85;21163;-56
2022/12/15 16:31:48;;;;;;;16.97;8.60;;;;;;;0.98;100.00;100141.38;1680048;85;21563;-52
2022/12/15 16:34:18;;;;;;;18.40;9.60;;;;;;;0.98;100.00;100145.43;1718949;83;21118;-54
2022/12/15 16:36:46;;;;;;;16.97;9.13;;;;;;;0.97;100.00;100145.92;1659122;86;21174;-52
2022/12/15 16:39:34;;;;;;;17.50;9.23;;;;;;;0.98;100.00;100152.17;1680430;85;21143;-54
2022/12/15 16:42:07;;;;;;;19.75;9.38;;;;;;;0.97;100.00;100161.26;1680468;85;21123;-53
2022/12/15 16:44:36;;;;;;;23.70;9.55;;;;;;;0.95;100.00;100166.30;1679788;85;21539;-55
2022/12/15 16:47:04;;;;;;;19.45;9.05;;;;;;;0.98;100.00;100164.31;1680157;85;21538;-56
2022/12/15 16:49:34;;;;;;;14.87;8.53;;;;;;;1.00;100.00;100166.37;1680129;85;21575;-55
2022/12/15 16:52:07;;;;;;;16.95;8.83;;;;;;;1.02;100.00;100163.88;1719515;82;21151;-56
2022/12/15 16:54:36;;;;;;;18.92;8.80;;;;;;;1.04;100.00;100169.14;1719303;82;21643;-56
2022/12/15 16:57:09;;;;;;;17.85;9.35;;;;;;;1.04;100.00;100163.74;1659449;86;21162;-56
2022/12/15 16:59:38;;;;;;;20.27;9.25;;;;;;;1.06;100.00;100174.75;1673902;86;21171;-55
2022/12/15 17:02:22;;;;;;;18.30;9.83;;;;;;;1.07;100.00;100176.95;1670230;85;21206;-56
2022/12/15 17:04:53;;;;;;;19.70;9.58;;;;;;;1.06;100.00;100184.69;1700212;83;21559;-55
2022/12/15 17:07:25;;;;;;;19.57;10.75;;;;;;;1.05;100.00;100177.59;1731891;83;21155;-54
2022/12/15 17:09:53;;;;;;;19.27;9.23;;;;;;;1.07;100.00;100182.34;1731963;83;21155;-57
2022/12/15 17:12:22;;;;;;;16.55;9.38;;;;;;;1.08;100.00;100189.44;1689811;84;21154;-52
2022/12/15 17:14:51;;;;;;;18.95;10.30;;;;;;;1.08;100.00;100173.25;1690190;85;21135;-58
2022/12/15 17:17:21;;;;;;;18.85;9.43;;;;;;;1.08;100.00;100180.00;1690500;83;21179;-52
2022/12/15 17:19:50;;;;;;;21.87;10.03;;;;;;;1.10;100.00;100179.36;1690172;83;21151;-53
2022/12/15 17:22:21;;;;;;;20.80;10.18;;;;;;;1.08;100.00;100175.45;1697012;84;21193;-54
2022/12/15 17:24:51;;;;;;;21.07;9.50;;;;;;;1.10;100.00;100180.70;1702875;83;21122;-53
2022/12/15 17:27:26;;;;;;;18.82;9.35;;;;;;;1.10;100.00;100180.70;1703173;84;21159;-54
2022/12/15 17:29:56;;;;;;;18.48;9.85;;;;;;;1.13;100.00;100183.97;1703088;83;21150;-54
2022/12/15 17:32:25;;;;;;;19.87;10.60;;;;;;;1.13;100.00;100188.02;1703415;83;21111;-55
2022/12/15 17:35:03;;;;;;;23.95;11.12;;;;;;;1.13;100.00;100175.87;1702913;83;21581;-55
2022/12/15 17:37:32;;;;;;;23.12;10.88;;;;;;;1.13;100.00;100182.63;1703410;84;21130;-54
2022/12/15 17:40:08;;;;;;;19.42;9.90;;;;;;;1.16;100.00;100187.73;1685841;84;21224;-54
2022/12/15 17:42:37;;;;;;;22.20;11.12;;;;;;;1.16;100.00;100194.97;1697182;84;21095;-54
2022/12/15 17:45:20;;;;;;;20.60;10.20;;;;;;;1.14;100.00;100196.97;1703361;84;21143;-55
2022/12/15 17:47:51;;;;;;;24.95;11.40;;;;;;;1.13;100.00;100193.91;1703482;83;21170;-54
2022/12/15 17:50:22;;;;;;;24.27;11.60;;;;;;;1.12;100.00;100197.11;1703102;84;21154;-52
2022/12/15 17:52:51;;;;;;;19.98;10.80;;;;;;;1.12;100.00;100191.71;1703469;84;21127;-54
2022/12/15 17:55:23;;;;;;;24.82;11.08;;;;;;;1.13;100.00;100193.41;1703424;84;21135;-54